createdAt,value
2019-03-11T00:01:11.369Z,7.40
2019-03-11T00:05:20.215Z,15.30
2019-03-11T00:09:28.476Z,7.97
2019-03-11T00:13:37.051Z,6.45
2019-03-11T00:17:45.937Z,9.95
2019-03-11T00:21:54.771Z,6.75
2019-03-11T00:26:02.992Z,13.10
2019-03-11T00:30:11.471Z,8.45
2019-03-11T00:34:19.911Z,8.35
2019-03-11T00:46:49.261Z,8.90
2019-03-11T00:50:57.393Z,7.20
2019-03-11T00:59:13.168Z,13.80
2019-03-11T01:03:21.457Z,5.60
2019-03-11T01:07:29.597Z,7.20
2019-03-11T01:11:37.779Z,10.80
2019-03-11T01:15:45.902Z,7.30
2019-03-11T01:19:54.087Z,4.10
2019-03-11T01:32:37.225Z,2.35
2019-03-11T01:36:45.353Z,4.90
2019-03-11T01:40:53.560Z,3.60
2019-03-11T01:45:01.700Z,2.80
2019-03-11T01:57:24.812Z,3.85
2019-03-11T02:01:32.974Z,6.05
2019-03-11T02:17:58.507Z,7.80
2019-03-11T02:22:06.692Z,4.20
2019-03-11T02:30:22.663Z,5.70
2019-03-11T02:34:30.897Z,3.10
2019-03-11T02:42:46.836Z,5.90
2019-03-11T02:46:55.290Z,6.60
2019-03-11T02:51:03.448Z,5.55
2019-03-11T02:55:12.383Z,6.30
2019-03-11T02:59:20.762Z,4.00
2019-03-11T03:03:34.409Z,3.65
2019-03-11T03:07:42.635Z,3.15
2019-03-11T03:11:51.056Z,2.70
2019-03-11T03:20:08.942Z,2.25
2019-03-11T03:28:24.865Z,2.60
2019-03-11T03:32:33.102Z,3.80
2019-03-11T03:36:41.456Z,2.60
2019-03-11T03:40:50.309Z,3.25
2019-03-11T03:49:43.955Z,3.40
2019-03-11T03:57:59.929Z,4.40
2019-03-11T04:02:08.186Z,3.30
2019-03-11T04:10:25.639Z,3.45
2019-03-11T04:23:04.806Z,4.80
2019-03-11T04:27:13.040Z,5.30
2019-03-11T04:31:21.161Z,5.75
2019-03-11T04:47:51.709Z,7.10
2019-03-11T05:16:46.184Z,5.90
2019-03-11T05:20:54.519Z,4.30
2019-03-11T05:29:10.290Z,4.20
2019-03-11T05:33:19.448Z,5.40
2019-03-11T05:49:51.778Z,7.60
2019-03-11T05:58:07.846Z,6.65
2019-03-11T06:02:15.953Z,4.65
2019-03-11T06:06:24.066Z,8.10
2019-03-11T06:14:39.903Z,6.30
2019-03-11T06:18:50.446Z,6.37
2019-03-11T06:22:58.802Z,11.80
2019-03-11T06:27:06.931Z,10.25
2019-03-11T06:35:24.371Z,14.00
2019-03-11T06:47:49.192Z,6.10
2019-03-11T06:51:57.480Z,10.50
2019-03-11T06:56:05.702Z,3.90
2019-03-11T07:00:14.760Z,6.63
2019-03-11T07:04:22.935Z,13.95
2019-03-11T07:08:31.105Z,4.95
2019-03-11T07:16:46.935Z,9.30
2019-03-11T07:20:55.100Z,5.10
2019-03-11T07:25:03.272Z,9.30
2019-03-11T07:29:11.423Z,9.60
2019-03-11T07:33:19.630Z,4.70
2019-03-11T07:37:27.913Z,12.55
2019-03-11T07:41:36.120Z,9.33
2019-03-11T07:45:44.269Z,5.95
2019-03-11T07:53:59.940Z,10.40
2019-03-11T08:06:23.624Z,7.35
2019-03-11T08:10:31.819Z,5.30
2019-03-11T08:18:47.541Z,7.45
2019-03-11T08:22:55.700Z,8.47
2019-03-11T08:27:03.865Z,8.50
2019-03-11T08:31:12.035Z,16.10
2019-03-11T08:35:20.195Z,8.03
2019-03-11T08:39:28.355Z,10.50
2019-03-11T08:47:44.236Z,8.75
2019-03-11T08:51:52.194Z,11.40
2019-03-11T09:12:30.997Z,7.50
2019-03-11T09:16:39.163Z,9.60
2019-03-11T09:20:47.346Z,7.40
2019-03-11T09:24:55.484Z,7.20
2019-03-11T09:29:03.691Z,4.80
2019-03-11T09:33:11.856Z,5.70
2019-03-11T09:37:20.095Z,5.70
2019-03-11T09:41:28.295Z,4.90
2019-03-11T09:45:36.449Z,3.20
2019-03-11T09:49:44.789Z,6.05
2019-03-11T09:53:52.970Z,8.40
2019-03-11T09:58:01.135Z,6.70
2019-03-11T10:02:12.182Z,4.00
2019-03-11T10:06:17.701Z,5.10
2019-03-11T10:10:25.868Z,6.65
2019-03-11T10:14:34.032Z,13.30
2019-03-11T10:18:42.209Z,11.73
2019-03-11T10:22:50.408Z,5.20
2019-03-11T10:26:58.551Z,6.20
2019-03-11T10:31:06.739Z,6.60
2019-03-11T10:35:30.626Z,7.10
2019-03-11T10:43:33.534Z,8.80
2019-03-11T10:47:41.726Z,6.90
2019-03-11T10:51:49.917Z,9.70
2019-03-11T10:55:59.936Z,6.05
2019-03-11T11:00:09.245Z,8.90
2019-03-11T11:04:17.424Z,10.20
2019-03-11T11:08:25.597Z,6.50
2019-03-11T11:12:34.465Z,12.43
2019-03-11T11:16:42.603Z,8.90
2019-03-11T11:20:50.760Z,30.77
2019-03-11T11:25:02.889Z,19.00
2019-03-11T11:33:24.074Z,7.95
2019-03-11T11:37:32.211Z,5.00
2019-03-11T11:41:40.779Z,3.95
2019-03-11T11:45:48.993Z,9.15
2019-03-11T11:49:57.314Z,3.40
2019-03-11T11:54:05.431Z,4.40
2019-03-11T11:58:13.561Z,5.43
2019-03-11T12:02:21.830Z,4.90
2019-03-11T12:06:30.082Z,5.30
2019-03-11T12:10:38.238Z,4.40
2019-03-11T12:14:46.378Z,9.45
2019-03-11T12:18:54.595Z,5.50
2019-03-11T12:27:10.215Z,5.80
2019-03-11T12:31:19.266Z,6.40
2019-03-11T12:35:26.503Z,10.95
2019-03-11T12:39:34.871Z,4.00
2019-03-11T12:51:58.043Z,7.00
2019-03-11T12:56:06.221Z,6.45
2019-03-11T13:00:15.992Z,6.00
2019-03-11T13:04:24.173Z,6.80
2019-03-11T13:08:33.989Z,10.60
2019-03-11T13:20:58.824Z,7.37
2019-03-11T13:25:07.426Z,15.30
2019-03-11T13:29:15.846Z,11.80
2019-03-11T13:33:24.058Z,11.25
2019-03-11T13:37:34.252Z,3.87
2019-03-11T13:41:42.755Z,5.40
2019-03-11T13:45:50.855Z,3.50
2019-03-11T13:54:14.568Z,6.20
2019-03-11T14:02:30.567Z,4.40
2019-03-11T14:10:46.824Z,4.20
2019-03-11T14:14:54.992Z,7.80
2019-03-11T14:19:03.178Z,6.13
2019-03-11T14:23:11.340Z,5.30
2019-03-11T14:27:19.512Z,10.00
2019-03-11T14:31:27.721Z,3.10
2019-03-11T14:35:35.884Z,6.25
2019-03-11T14:39:44.052Z,5.30
2019-03-11T14:43:52.270Z,8.75
2019-03-11T14:48:00.440Z,5.80
2019-03-11T14:52:08.615Z,4.63
2019-03-11T14:56:16.761Z,8.13
2019-03-11T15:00:24.952Z,6.43
2019-03-11T15:04:33.149Z,29.20
2019-03-11T15:08:41.296Z,8.57
2019-03-11T15:12:49.498Z,5.93
2019-03-11T15:16:57.653Z,8.47
2019-03-11T15:21:05.944Z,13.17
2019-03-11T15:25:14.045Z,13.80
2019-03-11T15:29:22.188Z,9.53
2019-03-11T15:33:30.357Z,11.00
2019-03-11T15:37:38.552Z,8.70
2019-03-11T15:41:46.704Z,5.53
2019-03-11T15:45:54.919Z,8.70
2019-03-11T15:50:03.084Z,8.00
2019-03-11T15:54:11.265Z,9.30
2019-03-11T15:58:19.441Z,6.53
2019-03-11T16:02:27.584Z,4.73
2019-03-11T16:06:35.779Z,5.10
2019-03-11T16:10:43.946Z,5.63
2019-03-11T16:14:52.275Z,4.97
2019-03-11T16:19:00.366Z,5.90
2019-03-11T16:23:08.521Z,6.07
2019-03-11T16:27:16.725Z,7.00
2019-03-11T16:31:24.947Z,4.23
2019-03-11T16:35:33.092Z,8.47
2019-03-11T16:39:41.267Z,4.80
2019-03-11T16:43:49.478Z,7.70
2019-03-11T16:56:22.633Z,7.15
2019-03-11T17:00:34.699Z,8.87
2019-03-11T17:04:42.851Z,10.25
2019-03-11T17:08:51.025Z,8.10
2019-03-11T17:12:59.223Z,6.55
2019-03-11T17:17:07.380Z,7.65
2019-03-11T17:21:15.640Z,8.80
2019-03-11T17:25:23.805Z,5.00
2019-03-11T17:29:31.982Z,6.30
2019-03-11T17:33:40.205Z,6.20
2019-03-11T17:37:48.446Z,7.20
2019-03-11T17:41:56.639Z,24.70
2019-03-11T17:46:04.827Z,5.83
2019-03-11T17:50:13.518Z,7.33
2019-03-11T17:54:22.694Z,5.90
2019-03-11T17:58:30.600Z,8.90
2019-03-11T18:02:38.765Z,12.43
2019-03-11T18:06:47.241Z,16.70
2019-03-11T18:10:56.299Z,6.90
2019-03-11T18:15:04.503Z,7.40
2019-03-11T18:19:12.685Z,8.00
2019-03-11T18:23:21.396Z,6.37
2019-03-11T18:27:29.868Z,7.20
2019-03-11T18:31:38.056Z,6.90
2019-03-11T18:35:46.189Z,9.73
2019-03-11T18:39:54.933Z,6.90
2019-03-11T18:44:03.079Z,8.10
2019-03-11T18:48:11.253Z,7.13
2019-03-11T18:52:20.149Z,11.10
2019-03-11T18:56:28.541Z,6.60
2019-03-11T19:00:36.737Z,6.25
2019-03-11T19:04:44.856Z,7.00
2019-03-11T19:08:53.686Z,7.80
2019-03-11T19:13:02.019Z,9.53
2019-03-11T19:17:10.330Z,7.00
2019-03-11T19:21:18.747Z,6.53
2019-03-11T19:25:27.372Z,16.10
2019-03-11T19:29:35.537Z,8.85
2019-03-11T19:33:43.735Z,7.87
2019-03-11T19:37:52.501Z,7.40
2019-03-11T19:42:00.967Z,6.85
2019-03-11T19:46:09.181Z,10.50
2019-03-11T19:50:17.941Z,11.67
2019-03-11T19:54:26.638Z,8.75
2019-03-11T19:58:34.819Z,8.45
2019-03-11T20:02:43.141Z,8.20
2019-03-11T20:06:51.954Z,10.95
2019-03-11T20:11:00.758Z,10.60
2019-03-11T20:15:09.827Z,10.35
2019-03-11T20:19:18.176Z,9.80
2019-03-11T20:23:27.336Z,9.80
2019-03-11T20:27:35.614Z,8.70
2019-03-11T20:31:43.822Z,9.67
2019-03-11T20:35:52.453Z,9.93
2019-03-11T20:40:00.868Z,8.20
2019-03-11T20:44:09.028Z,8.75
2019-03-11T20:56:33.352Z,25.50
2019-03-11T21:00:41.507Z,16.50
2019-03-11T21:08:57.589Z,14.60
2019-03-11T21:13:05.845Z,11.15
2019-03-11T21:17:25.322Z,9.60
2019-03-11T21:25:30.362Z,11.90
2019-03-11T21:29:38.972Z,21.50
2019-03-11T21:33:58.066Z,28.70
2019-03-11T21:37:55.593Z,23.70
2019-03-11T21:42:05.650Z,22.80
2019-03-11T21:46:12.352Z,22.97
2019-03-11T21:54:29.172Z,12.25
2019-03-11T21:58:37.427Z,20.50
2019-03-11T22:02:45.620Z,28.70
2019-03-11T22:06:54.426Z,23.15
2019-03-11T22:11:02.843Z,21.50
2019-03-11T22:15:11.801Z,15.90
2019-03-11T22:19:20.929Z,15.30
2019-03-11T22:23:29.565Z,10.50
2019-03-11T22:27:37.950Z,13.55
2019-03-11T22:31:46.334Z,14.95
2019-03-11T22:35:54.884Z,20.35
2019-03-11T22:40:05.781Z,23.70
2019-03-11T22:44:11.616Z,14.80
2019-03-11T22:48:21.014Z,14.70
2019-03-11T22:52:29.635Z,19.00
2019-03-11T23:05:04.479Z,24.67
2019-03-11T23:09:12.781Z,18.30
2019-03-11T23:13:21.811Z,18.40
2019-03-11T23:21:37.985Z,16.90
2019-03-11T23:25:46.332Z,14.40
2019-03-11T23:29:55.348Z,15.00
2019-03-11T23:34:04.005Z,11.50
2019-03-11T23:42:20.275Z,8.75
2019-03-11T23:46:28.968Z,54.60
2019-03-11T23:50:37.219Z,34.80
2019-03-11T23:54:45.413Z,23.13
2019-03-11T23:58:53.683Z,46.40
